This is the latest recevied weather packets stored in our database for station/object HB9SZU-7. If no packets are shown the sender has not sent any weather packets the latest 10 day(s).
| Time | Temp. | Humidity | Pressure | Rain* | Wind** | Luminosity | Snow |
|---|---|---|---|---|---|---|---|
| 1777601869 | 9.44° C | 79% | 944.2 hPa | - | - | - | - |
| 1777583630 | 10.56° C | 77% | 943.7 hPa | - | - | - | - |
| 1777580749 | 10.56° C | 77% | 943.4 hPa | - | - | - | - |
| 1777579789 | 10.56° C | 77% | 943.4 hPa | - | - | - | - |
| 1777578829 | 10.56° C | 77% | 943.2 hPa | - | - | - | - |
| 1777574030 | 11.11° C | 75% | 942.3 hPa | - | - | - | - |
| 1777573069 | 11.67° C | 75% | 942.2 hPa | - | - | - | - |
| 1777572109 | 11.67° C | 75% | 942 hPa | - | - | - | - |
| 1777571149 | 11.67° C | 74% | 941.8 hPa | - | - | - | - |
| 1777567310 | 12.22° C | 72% | 941.7 hPa | - | - | - | - |
| 1777566349 | 11.67° C | 72% | 941.7 hPa | - | - | - | - |
| 1777562509 | 11.67° C | 73% | 942 hPa | - | - | - | - |
| 1777559630 | 11.67° C | 73% | 942.2 hPa | - | - | - | - |
| 1777557710 | 11.67° C | 74% | 942.4 hPa | - | - | - | - |
| 1777556749 | 11.67° C | 74% | 942.4 hPa | - | - | - | - |
| 1777548110 | 9.44° C | 81% | 943.1 hPa | - | - | - | - |
| 1777546189 | 8.89° C | 81% | 943.2 hPa | - | - | - | - |
| 1777544269 | 8.33° C | 82% | 943.1 hPa | - | - | - | - |
| 1777543310 | 7.78° C | 82% | 943 hPa | - | - | - | - |
| 1777542349 | 7.78° C | 82% | 943 hPa | - | - | - | - |
| 1777541389 | 7.78° C | 83% | 942.9 hPa | - | - | - | - |
| 1777540429 | 7.78° C | 83% | 942.9 hPa | - | - | - | - |
| 1777538509 | 7.78° C | 83% | 942.9 hPa | - | - | - | - |
| 1777537549 | 7.78° C | 83% | 942.6 hPa | - | - | - | - |
| 1777536589 | 7.78° C | 83% | 942.4 hPa | - | - | - | - |
* Rain since midnight (hover to see other rain measurements)
** Current wind speed in m/s (hover to see current wind gust speed)